createdAt,value
2022-10-22T00:01:40.014Z,99935.20
2022-10-22T00:04:12.795Z,99938.20
2022-10-22T00:06:45.567Z,99944.80
2022-10-22T00:09:18.941Z,99943.60
2022-10-22T00:11:51.896Z,99936.20
2022-10-22T00:14:24.722Z,99939.60
2022-10-22T00:17:01.069Z,99935.80
2022-10-22T00:19:33.849Z,99932.80
2022-10-22T00:22:06.888Z,99934.40
2022-10-22T00:24:40.987Z,99938.00
2022-10-22T00:27:15.565Z,99945.20
2022-10-22T00:29:48.364Z,99947.20
2022-10-22T00:32:21.080Z,99936.20
2022-10-22T00:34:53.759Z,99926.40
2022-10-22T00:37:26.472Z,99931.80
2022-10-22T00:39:59.244Z,99931.80
2022-10-22T00:42:32.413Z,99916.60
2022-10-22T00:45:25.114Z,99904.60
2022-10-22T00:48:04.853Z,99900.60
2022-10-22T00:50:41.682Z,99896.20
2022-10-22T00:53:18.350Z,99889.80
2022-10-22T00:55:55.357Z,99886.40
2022-10-22T00:58:32.386Z,99892.20
2022-10-22T01:01:07.418Z,99886.40
2022-10-22T01:03:40.234Z,99883.20
2022-10-22T01:06:20.634Z,99876.20
2022-10-22T01:08:58.245Z,99868.60
2022-10-22T01:11:43.853Z,99865.40
2022-10-22T01:14:26.642Z,99866.00
2022-10-22T01:17:06.144Z,99868.00
2022-10-22T01:19:57.247Z,99865.80
2022-10-22T01:22:35.419Z,99867.60
2022-10-22T01:25:18.409Z,99873.40
2022-10-22T01:28:09.265Z,99882.20
2022-10-22T01:30:42.903Z,99898.40
2022-10-22T01:33:19.164Z,99918.00
2022-10-22T01:35:53.761Z,99923.60
2022-10-22T01:38:28.417Z,99904.40
2022-10-22T01:41:01.561Z,99883.60
2022-10-22T01:43:34.454Z,99876.80
2022-10-22T01:46:11.556Z,99886.20
2022-10-22T01:49:03.316Z,99881.20
2022-10-22T01:51:52.246Z,99869.80
2022-10-22T01:54:40.483Z,99876.40
2022-10-22T01:57:22.623Z,99872.20
2022-10-22T02:00:05.268Z,99872.00
2022-10-22T02:05:30.015Z,99871.00
2022-10-22T02:08:10.643Z,99874.00
2022-10-22T02:10:44.862Z,99868.20
2022-10-22T02:13:23.662Z,99860.40
2022-10-22T02:15:59.262Z,99853.80
2022-10-22T02:18:38.827Z,99856.80
2022-10-22T02:21:12.794Z,99851.80
2022-10-22T02:23:46.782Z,99837.00
2022-10-22T02:26:32.897Z,99828.00
2022-10-22T02:29:13.173Z,99830.20
2022-10-22T02:31:49.975Z,99849.00
2022-10-22T02:34:27.232Z,99856.80
2022-10-22T02:37:01.610Z,99854.00
2022-10-22T02:39:36.346Z,99859.80
2022-10-22T02:42:09.862Z,99851.80
2022-10-22T02:44:42.901Z,99849.40
2022-10-22T02:47:15.703Z,99861.40
2022-10-22T02:49:48.599Z,99865.00
2022-10-22T02:52:21.400Z,99871.20
2022-10-22T02:54:54.163Z,99872.80
2022-10-22T02:57:27.002Z,99871.20
2022-10-22T02:59:59.910Z,99866.00
2022-10-22T03:02:32.629Z,99856.20
2022-10-22T03:05:05.797Z,99849.40
2022-10-22T03:07:38.835Z,99853.20
2022-10-22T03:10:12.959Z,99853.00
2022-10-22T03:12:45.708Z,99860.80
2022-10-22T03:15:18.917Z,99864.60
2022-10-22T03:17:51.831Z,99866.40
2022-10-22T03:20:24.604Z,99863.40
2022-10-22T03:22:58.680Z,99861.40
2022-10-22T03:25:34.711Z,99864.00
2022-10-22T03:28:10.713Z,99860.60
2022-10-22T03:30:43.502Z,99869.00
2022-10-22T03:33:16.210Z,99870.60
2022-10-22T03:35:50.444Z,99863.20
2022-10-22T03:38:23.223Z,99857.40
2022-10-22T03:40:56.165Z,99857.60
2022-10-22T03:43:29.140Z,99862.40
2022-10-22T03:46:01.936Z,99861.00
2022-10-22T03:48:34.640Z,99866.20
2022-10-22T03:51:08.044Z,99864.40
2022-10-22T03:53:40.879Z,99863.80
2022-10-22T03:56:15.016Z,99863.00
2022-10-22T03:58:47.960Z,99869.20
2022-10-22T04:01:20.762Z,99874.00
2022-10-22T04:03:53.624Z,99870.20
2022-10-22T04:06:26.457Z,99871.20
2022-10-22T04:09:01.325Z,99865.40
2022-10-22T04:11:34.166Z,99864.00
2022-10-22T04:14:07.493Z,99870.60
2022-10-22T04:16:42.080Z,99863.60
2022-10-22T04:19:14.933Z,99863.80
2022-10-22T04:21:47.789Z,99860.60
2022-10-22T04:24:20.473Z,99856.40
2022-10-22T04:26:54.588Z,99856.20
2022-10-22T04:29:27.800Z,99848.20
2022-10-22T04:32:00.528Z,99841.60
2022-10-22T04:34:33.876Z,99830.80
2022-10-22T04:37:06.643Z,99839.60
2022-10-22T04:39:39.490Z,99840.80
2022-10-22T04:42:12.779Z,99840.40
2022-10-22T04:44:45.515Z,99839.00
2022-10-22T04:47:18.330Z,99845.40
2022-10-22T04:49:51.004Z,99846.20
2022-10-22T04:52:23.768Z,99853.20
2022-10-22T04:54:56.415Z,99859.20
2022-10-22T04:57:32.596Z,99864.80
2022-10-22T05:00:05.999Z,99876.60
2022-10-22T05:02:38.995Z,99883.20
2022-10-22T05:05:12.715Z,99882.40
2022-10-22T05:07:45.470Z,99876.40
2022-10-22T05:10:18.340Z,99872.20
2022-10-22T05:12:51.197Z,99878.80
2022-10-22T05:15:23.950Z,99872.80
2022-10-22T05:17:56.719Z,99870.20
2022-10-22T05:20:29.460Z,99866.60
2022-10-22T05:23:03.014Z,99873.00
2022-10-22T05:25:40.034Z,99878.40
2022-10-22T05:28:12.889Z,99884.60
2022-10-22T05:30:53.549Z,99880.60
2022-10-22T05:33:26.373Z,99888.60
2022-10-22T05:36:00.075Z,99900.00
2022-10-22T05:38:33.389Z,99897.40
2022-10-22T05:41:08.373Z,99896.60
2022-10-22T05:43:41.445Z,99898.80
2022-10-22T05:46:22.200Z,99897.40
2022-10-22T05:48:58.190Z,99918.20
2022-10-22T05:51:34.331Z,99930.00
2022-10-22T05:54:11.140Z,99933.80
2022-10-22T05:56:44.182Z,99945.40
2022-10-22T05:59:16.991Z,99944.00
2022-10-22T06:01:49.710Z,99944.00
2022-10-22T06:04:22.450Z,99949.60
2022-10-22T06:06:56.295Z,99942.00
2022-10-22T06:09:32.106Z,99936.00
2022-10-22T06:12:09.130Z,99937.20
2022-10-22T06:14:41.983Z,99934.00
2022-10-22T06:17:15.355Z,99931.20
2022-10-22T06:19:48.328Z,99926.60
2022-10-22T06:22:21.133Z,99930.20
2022-10-22T06:24:54.779Z,99932.40
2022-10-22T06:27:27.666Z,99933.80
2022-10-22T06:30:00.412Z,99919.20
2022-10-22T06:32:33.256Z,99927.20
2022-10-22T06:35:06.578Z,99921.60
2022-10-22T06:37:39.677Z,99917.20
2022-10-22T06:40:16.518Z,99919.40
2022-10-22T06:42:49.483Z,99918.00
2022-10-22T06:45:22.598Z,99918.00
2022-10-22T06:47:55.736Z,99922.80
2022-10-22T06:50:28.690Z,99936.20
2022-10-22T06:53:02.188Z,99939.40
2022-10-22T06:55:36.745Z,99929.00
2022-10-22T06:58:09.518Z,99927.20
2022-10-22T07:00:42.297Z,99927.20
2022-10-22T07:03:16.934Z,99939.20
2022-10-22T07:05:49.763Z,99937.20
2022-10-22T07:08:22.540Z,99938.60
2022-10-22T07:10:55.591Z,99950.60
2022-10-22T07:13:28.508Z,99947.40
2022-10-22T07:16:01.390Z,99948.60
2022-10-22T07:18:35.384Z,99944.20
2022-10-22T07:21:10.274Z,99947.40
2022-10-22T07:23:46.226Z,99950.80
2022-10-22T07:26:21.419Z,99944.80
2022-10-22T07:28:56.131Z,99950.60
2022-10-22T07:31:29.358Z,99946.00
2022-10-22T07:34:02.243Z,99946.40
2022-10-22T07:36:35.016Z,99943.80
2022-10-22T07:39:08.355Z,99948.20
2022-10-22T07:41:41.640Z,99952.60
2022-10-22T07:44:14.440Z,99960.20
2022-10-22T07:46:48.920Z,99961.80
2022-10-22T07:49:21.965Z,99956.00
2022-10-22T07:51:54.843Z,99957.00
2022-10-22T07:54:28.094Z,99960.40
2022-10-22T07:57:00.916Z,99957.80
2022-10-22T07:59:33.712Z,99960.00
2022-10-22T08:02:06.542Z,99966.40
2022-10-22T08:04:39.733Z,99965.40
2022-10-22T08:07:12.462Z,99967.20
2022-10-22T08:09:45.297Z,99966.80
2022-10-22T08:12:18.056Z,99973.00
2022-10-22T08:14:50.853Z,99970.20
2022-10-22T08:17:23.655Z,99971.40
2022-10-22T08:19:56.575Z,99970.80
2022-10-22T08:22:29.439Z,99970.00
2022-10-22T08:25:02.285Z,99968.80
2022-10-22T08:27:35.030Z,99967.40
2022-10-22T08:30:12.018Z,99972.60
2022-10-22T08:32:45.446Z,99973.80
2022-10-22T08:35:18.390Z,99971.00
2022-10-22T08:37:51.156Z,99977.40
2022-10-22T08:40:31.563Z,99984.00
2022-10-22T08:44:06.718Z,99988.40
2022-10-22T08:47:17.422Z,100007.80
2022-10-22T08:49:54.761Z,100016.80
2022-10-22T08:52:27.592Z,100013.20
2022-10-22T08:55:03.340Z,100012.80
2022-10-22T08:57:53.316Z,100005.60
2022-10-22T09:00:33.039Z,100005.00
2022-10-22T09:03:27.478Z,99994.80
2022-10-22T09:06:09.586Z,99992.40
2022-10-22T09:08:44.441Z,99989.60
2022-10-22T09:11:27.912Z,99992.20
2022-10-22T09:14:02.597Z,99991.60
2022-10-22T09:16:41.784Z,99994.60
2022-10-22T09:19:26.136Z,99992.20
2022-10-22T09:22:09.296Z,99994.80
2022-10-22T09:24:46.532Z,100004.60
2022-10-22T09:27:23.791Z,100006.80
2022-10-22T09:29:56.842Z,100006.80
2022-10-22T09:32:30.564Z,100006.40
2022-10-22T09:35:03.509Z,100008.00
2022-10-22T09:37:36.230Z,100015.40
2022-10-22T09:40:15.114Z,100017.20
2022-10-22T09:42:49.205Z,100019.60
2022-10-22T09:45:25.902Z,100014.80
2022-10-22T09:48:14.148Z,100011.40
2022-10-22T09:50:51.108Z,100010.60
2022-10-22T09:53:27.248Z,100011.40
2022-10-22T09:56:02.698Z,100012.80
2022-10-22T09:58:49.488Z,100012.00
2022-10-22T10:01:26.470Z,100010.60
2022-10-22T10:04:09.685Z,100008.60
2022-10-22T10:06:45.300Z,100009.00
2022-10-22T10:09:22.622Z,100013.40
2022-10-22T10:12:07.091Z,100013.00
2022-10-22T10:14:48.520Z,100019.60
2022-10-22T10:17:33.852Z,100023.20
2022-10-22T10:20:32.537Z,100024.20
2022-10-22T10:23:16.394Z,100034.00
2022-10-22T10:25:59.569Z,100022.80
2022-10-22T10:28:56.364Z,100010.80
2022-10-22T10:31:41.789Z,100011.00
2022-10-22T10:34:30.310Z,100021.00
2022-10-22T10:37:20.013Z,100018.60
2022-10-22T10:40:16.207Z,100028.20
2022-10-22T10:42:57.118Z,100032.20
2022-10-22T10:45:38.836Z,100031.00
2022-10-22T10:48:35.804Z,100020.60
2022-10-22T10:51:22.534Z,100021.60
2022-10-22T10:54:14.930Z,100027.40
2022-10-22T10:56:53.044Z,100024.80
2022-10-22T10:59:43.716Z,100026.20
2022-10-22T11:03:07.160Z,100030.40
2022-10-22T11:05:49.698Z,100026.60
2022-10-22T11:08:26.035Z,100022.40
2022-10-22T11:11:05.038Z,100026.20
2022-10-22T11:13:44.175Z,100021.60
2022-10-22T11:16:25.983Z,100021.00
2022-10-22T11:19:04.667Z,100024.20
2022-10-22T11:21:44.030Z,100013.80
2022-10-22T11:24:27.057Z,100006.80
2022-10-22T11:27:06.476Z,100003.20
2022-10-22T11:29:45.694Z,99998.40
2022-10-22T11:32:22.814Z,99991.80
2022-10-22T11:34:59.731Z,99993.60
2022-10-22T11:37:39.095Z,99997.80
2022-10-22T11:40:19.776Z,100007.60
2022-10-22T11:42:56.362Z,100003.00
2022-10-22T11:45:39.128Z,100005.40
2022-10-22T11:48:20.652Z,100010.40
2022-10-22T11:51:00.304Z,100014.00
2022-10-22T11:53:39.214Z,100010.60
2022-10-22T11:56:28.001Z,100005.00
2022-10-22T11:59:02.675Z,100006.60
2022-10-22T12:01:49.393Z,100007.40
2022-10-22T12:04:41.160Z,100008.00
2022-10-22T12:07:36.307Z,100009.80
2022-10-22T12:10:20.224Z,100010.80
2022-10-22T12:13:04.137Z,100008.20
2022-10-22T12:15:47.489Z,100003.40
2022-10-22T12:18:20.388Z,99998.60
2022-10-22T12:20:56.510Z,99996.60
2022-10-22T12:23:35.392Z,99999.80
2022-10-22T12:26:23.519Z,99989.00
2022-10-22T12:29:00.346Z,99997.00
2022-10-22T12:31:39.037Z,99999.20
2022-10-22T12:34:17.947Z,100000.80
2022-10-22T12:36:53.609Z,100004.20
2022-10-22T12:39:30.147Z,100004.60
2022-10-22T12:42:05.985Z,99996.40
2022-10-22T12:44:38.830Z,100000.40
2022-10-22T12:47:18.460Z,100002.80
2022-10-22T12:49:53.836Z,100000.40
2022-10-22T12:52:27.307Z,100000.20
2022-10-22T12:55:00.138Z,100001.20
2022-10-22T12:57:33.027Z,99996.80
2022-10-22T13:00:06.813Z,99997.00
2022-10-22T13:02:39.772Z,100003.00
2022-10-22T13:05:28.334Z,99994.80
2022-10-22T13:08:12.421Z,100002.40
2022-10-22T13:10:53.365Z,99996.40
2022-10-22T13:13:43.318Z,99988.60
2022-10-22T13:16:24.410Z,99991.00
2022-10-22T13:18:58.116Z,99992.60
2022-10-22T13:21:39.121Z,99997.80
2022-10-22T13:24:26.286Z,99995.80
2022-10-22T13:26:59.081Z,99998.40
2022-10-22T13:29:31.946Z,99999.00
2022-10-22T13:32:04.749Z,99999.60
2022-10-22T13:34:38.551Z,100001.00
2022-10-22T13:37:13.236Z,100002.00
2022-10-22T13:39:46.436Z,99999.80
2022-10-22T13:42:19.265Z,100009.00
2022-10-22T13:44:52.027Z,100010.40
2022-10-22T13:47:30.931Z,100010.40
2022-10-22T13:50:08.654Z,100014.80
2022-10-22T13:52:46.156Z,100016.40
2022-10-22T13:55:25.694Z,100017.80
2022-10-22T13:58:01.781Z,100022.20
2022-10-22T14:00:34.625Z,100022.00
2022-10-22T14:03:11.309Z,100023.20
2022-10-22T14:05:44.141Z,100024.00
2022-10-22T14:08:21.007Z,100028.60
2022-10-22T14:10:54.170Z,100027.80
2022-10-22T14:13:27.761Z,100032.60
2022-10-22T14:16:00.548Z,100035.00
2022-10-22T14:18:33.563Z,100032.60
2022-10-22T14:21:08.760Z,100034.60
2022-10-22T14:23:43.633Z,100034.20
2022-10-22T14:26:28.262Z,100031.00
2022-10-22T14:29:10.300Z,100040.20
2022-10-22T14:31:45.342Z,100041.00
2022-10-22T14:34:19.091Z,100039.20
2022-10-22T14:36:51.978Z,100046.60
2022-10-22T14:39:24.759Z,100046.00
2022-10-22T14:41:57.911Z,100044.80
2022-10-22T14:44:31.202Z,100052.20
2022-10-22T14:47:04.177Z,100051.20
2022-10-22T14:49:36.938Z,100047.80
2022-10-22T14:52:11.786Z,100048.20
2022-10-22T14:54:48.678Z,100053.40
2022-10-22T14:57:21.483Z,100056.20
2022-10-22T14:59:55.067Z,100059.60
2022-10-22T15:02:28.044Z,100059.00
2022-10-22T15:05:00.793Z,100068.00
2022-10-22T15:07:33.694Z,100065.20
2022-10-22T15:10:08.611Z,100064.20
2022-10-22T15:12:41.514Z,100067.80
2022-10-22T15:15:17.262Z,100073.40
2022-10-22T15:17:52.275Z,100069.60
2022-10-22T15:20:25.076Z,100073.80
2022-10-22T15:22:58.940Z,100076.40
2022-10-22T15:25:31.916Z,100081.40
2022-10-22T15:28:09.870Z,100077.80
2022-10-22T15:30:42.827Z,100082.00
2022-10-22T15:33:15.638Z,100084.80
2022-10-22T15:35:48.464Z,100086.40
2022-10-22T15:38:21.358Z,100089.60
2022-10-22T15:41:05.429Z,100090.60
2022-10-22T15:43:38.860Z,100095.20
2022-10-22T15:46:17.606Z,100096.00
2022-10-22T15:48:50.500Z,100107.00
2022-10-22T15:51:23.724Z,100105.00
2022-10-22T15:54:00.010Z,100115.40
2022-10-22T15:56:33.713Z,100119.00
2022-10-22T15:59:07.894Z,100125.20
2022-10-22T16:01:40.969Z,100119.40
2022-10-22T16:04:14.317Z,100120.80
2022-10-22T16:06:50.022Z,100128.00
2022-10-22T16:09:26.112Z,100127.20
2022-10-22T16:11:59.037Z,100121.20
2022-10-22T16:14:31.909Z,100125.80
2022-10-22T16:17:04.638Z,100131.00
2022-10-22T16:19:37.787Z,100129.20
2022-10-22T16:22:13.814Z,100130.20
2022-10-22T16:24:46.686Z,100135.60
2022-10-22T16:27:19.378Z,100133.80
2022-10-22T16:29:52.215Z,100142.80
2022-10-22T16:32:24.920Z,100143.20
2022-10-22T16:34:58.204Z,100146.20
2022-10-22T16:37:31.464Z,100149.00
2022-10-22T16:40:07.419Z,100154.00
2022-10-22T16:42:42.138Z,100155.80
2022-10-22T16:47:53.128Z,100160.20
2022-10-22T16:50:25.933Z,100165.20
2022-10-22T16:52:58.722Z,100170.20
2022-10-22T16:55:31.512Z,100166.80
2022-10-22T16:58:04.289Z,100167.40
2022-10-22T17:00:38.101Z,100168.20
2022-10-22T17:03:12.448Z,100169.00
2022-10-22T17:05:46.011Z,100170.80
2022-10-22T17:08:20.043Z,100175.80
2022-10-22T17:10:52.897Z,100176.00
2022-10-22T17:13:25.615Z,100180.60
2022-10-22T17:16:04.145Z,100186.40
2022-10-22T17:18:38.771Z,100190.80
2022-10-22T17:21:13.421Z,100194.00
2022-10-22T17:23:46.498Z,100190.60
2022-10-22T17:26:22.299Z,100190.40
2022-10-22T17:28:55.179Z,100198.20
2022-10-22T17:31:32.410Z,100198.20
2022-10-22T17:34:06.129Z,100201.60
2022-10-22T17:36:39.829Z,100198.60
2022-10-22T17:39:17.667Z,100209.80
2022-10-22T17:41:50.566Z,100206.00
2022-10-22T17:44:23.337Z,100208.80
2022-10-22T17:46:56.444Z,100210.00
2022-10-22T17:49:29.263Z,100218.60
2022-10-22T17:52:02.223Z,100226.00
2022-10-22T17:54:35.509Z,100224.80
2022-10-22T17:57:08.876Z,100221.20
2022-10-22T17:59:41.647Z,100222.40
2022-10-22T18:02:18.751Z,100228.20
2022-10-22T18:04:54.765Z,100228.80
2022-10-22T18:07:27.595Z,100232.40
2022-10-22T18:10:00.340Z,100237.80
2022-10-22T18:12:33.215Z,100238.20
2022-10-22T18:15:06.711Z,100241.00
2022-10-22T18:17:41.721Z,100242.00
2022-10-22T18:20:16.516Z,100245.00
2022-10-22T18:22:49.467Z,100249.20
2022-10-22T18:25:22.296Z,100249.80
2022-10-22T18:27:55.192Z,100248.20
2022-10-22T18:30:28.117Z,100249.00
2022-10-22T18:33:00.971Z,100253.60
2022-10-22T18:35:36.220Z,100251.40
2022-10-22T18:38:09.109Z,100253.00
2022-10-22T18:40:47.205Z,100251.80
2022-10-22T18:43:20.822Z,100251.80
2022-10-22T18:45:53.584Z,100248.00
2022-10-22T18:48:26.438Z,100251.20
2022-10-22T18:51:06.681Z,100255.40
2022-10-22T18:53:40.691Z,100253.20
2022-10-22T18:56:14.816Z,100256.00
2022-10-22T18:58:49.491Z,100254.00
2022-10-22T19:01:25.164Z,100256.80
2022-10-22T19:03:58.635Z,100255.60
2022-10-22T19:06:34.535Z,100263.80
2022-10-22T19:09:09.910Z,100272.40
2022-10-22T19:11:43.370Z,100277.60
2022-10-22T19:14:19.612Z,100277.80
2022-10-22T19:16:53.186Z,100277.20
2022-10-22T19:19:26.286Z,100278.40
2022-10-22T19:21:59.662Z,100281.40
2022-10-22T19:24:32.572Z,100287.20
2022-10-22T19:27:05.531Z,100286.80
2022-10-22T19:29:39.337Z,100292.40
2022-10-22T19:32:12.077Z,100289.40
2022-10-22T19:34:45.800Z,100292.40
2022-10-22T19:37:18.689Z,100300.40
2022-10-22T19:39:53.217Z,100302.40
2022-10-22T19:42:25.983Z,100303.80
2022-10-22T19:44:58.797Z,100304.00
2022-10-22T19:47:31.666Z,100306.20
2022-10-22T19:50:04.737Z,100308.40
2022-10-22T19:52:37.592Z,100312.80
2022-10-22T19:55:11.345Z,100316.40
2022-10-22T19:57:44.541Z,100316.80
2022-10-22T20:00:18.691Z,100321.20
2022-10-22T20:02:51.557Z,100320.60
2022-10-22T20:05:24.538Z,100322.20
2022-10-22T20:07:57.551Z,100325.80
2022-10-22T20:10:30.614Z,100324.40
2022-10-22T20:13:03.481Z,100331.80
2022-10-22T20:15:37.594Z,100333.20
2022-10-22T20:18:10.608Z,100341.40
2022-10-22T20:20:43.481Z,100341.60
2022-10-22T20:23:16.751Z,100341.20
2022-10-22T20:25:50.296Z,100342.60
2022-10-22T20:28:23.108Z,100339.60
2022-10-22T20:30:56.161Z,100339.60
2022-10-22T20:33:28.926Z,100346.00
2022-10-22T20:36:07.729Z,100351.40
2022-10-22T20:38:40.582Z,100339.60
2022-10-22T20:41:15.784Z,100337.60
2022-10-22T20:43:50.760Z,100338.40
2022-10-22T20:46:27.119Z,100340.40
2022-10-22T20:49:02.715Z,100336.60
2022-10-22T20:51:36.058Z,100337.60
2022-10-22T20:54:09.802Z,100346.00
2022-10-22T20:56:43.867Z,100346.60
2022-10-22T20:59:17.310Z,100347.00
2022-10-22T21:01:53.532Z,100347.80
2022-10-22T21:04:27.307Z,100343.40
2022-10-22T21:07:00.613Z,100350.40
2022-10-22T21:09:34.786Z,100351.00
2022-10-22T21:12:08.135Z,100353.00
2022-10-22T21:14:41.106Z,100349.40
2022-10-22T21:17:14.174Z,100353.40
2022-10-22T21:19:47.018Z,100357.40
2022-10-22T21:22:19.822Z,100358.00
2022-10-22T21:24:52.585Z,100359.20
2022-10-22T21:27:25.890Z,100355.00
2022-10-22T21:29:59.201Z,100352.20
2022-10-22T21:32:31.972Z,100353.20
2022-10-22T21:35:04.928Z,100355.40
2022-10-22T21:37:37.707Z,100357.40
2022-10-22T21:40:13.553Z,100354.00
2022-10-22T21:42:46.333Z,100360.20
2022-10-22T21:45:22.273Z,100357.60
2022-10-22T21:47:55.217Z,100365.80
2022-10-22T21:50:28.023Z,100367.40
2022-10-22T21:53:01.321Z,100364.80
2022-10-22T21:55:38.257Z,100366.00
2022-10-22T21:58:11.775Z,100371.20
2022-10-22T22:00:50.290Z,100371.20
2022-10-22T22:03:23.161Z,100372.00
2022-10-22T22:06:03.036Z,100369.80
2022-10-22T22:08:36.270Z,100371.20
2022-10-22T22:11:12.453Z,100376.00
2022-10-22T22:13:45.849Z,100372.80
2022-10-22T22:16:27.030Z,100381.40
2022-10-22T22:21:39.286Z,100380.20
2022-10-22T22:24:14.637Z,100383.60
2022-10-22T22:26:47.412Z,100384.40
2022-10-22T22:29:20.241Z,100388.40
2022-10-22T22:31:53.061Z,100385.60
2022-10-22T22:34:25.913Z,100388.80
2022-10-22T22:36:58.834Z,100390.40
2022-10-22T22:39:32.131Z,100388.80
2022-10-22T22:42:05.179Z,100391.20
2022-10-22T22:44:37.964Z,100392.00
2022-10-22T22:47:11.112Z,100392.20
2022-10-22T22:49:43.907Z,100387.00
2022-10-22T22:52:16.802Z,100388.20
2022-10-22T22:54:49.786Z,100389.80
2022-10-22T22:57:22.650Z,100394.00
2022-10-22T22:59:55.810Z,100395.00
2022-10-22T23:02:28.942Z,100399.60
2022-10-22T23:05:01.989Z,100400.40
2022-10-22T23:07:34.793Z,100399.80
2022-10-22T23:10:08.640Z,100399.20
2022-10-22T23:12:41.672Z,100394.60
2022-10-22T23:15:15.687Z,100394.80
2022-10-22T23:17:48.481Z,100393.80
2022-10-22T23:20:21.467Z,100396.00
2022-10-22T23:22:54.210Z,100394.80
2022-10-22T23:25:26.941Z,100396.80
2022-10-22T23:27:59.961Z,100401.20
2022-10-22T23:30:32.813Z,100400.80
2022-10-22T23:33:05.564Z,100402.00
2022-10-22T23:35:42.657Z,100403.60
2022-10-22T23:38:15.638Z,100400.60
2022-10-22T23:40:48.367Z,100407.80
2022-10-22T23:43:21.132Z,100396.80
2022-10-22T23:45:53.961Z,100397.20
2022-10-22T23:48:27.177Z,100402.20
2022-10-22T23:51:04.395Z,100401.40
2022-10-22T23:53:37.268Z,100402.60
2022-10-22T23:56:14.594Z,100406.20
2022-10-22T23:58:51.124Z,100413.20
